Accueil
METAR-TAF:

METAR-TAF

Aéroports :

Walla Walla, Washington, États-Unis

latitude: 46-05-42N, longitude: 118-17-03W, altitude: 367 m

Observation

Le bulletin a été fait il y a 15 minutes, à 10:53 UTC
Vent calme
Température -2°C
Humidité 86%
Pression 1038 hPa
Visibilité: 14.5 km
Ciel couvert à une hauteur de 1200 ft

METAR: KALW 111053Z AUTO 00000KT 9SM OVC012 M02/M04 A3065 RMK AO2 SLP396 T10171044

Heure: 03:08 (11:08 UTC)

Prévision

Le bulletin a été fait il y a 5 heures et 34 minutes, à 05:34 UTC
Prévision valable du 11 à 06 UTC au 12 à 06 UTC
Vent 4 kt de direction variable
Visibilité: 10 km
Ciel couvert à une hauteur de 1500 ft
A partir de 11 à 1400 UTC
Vent kt de nord
Visibilité: 3.2 km
Ciel couvert à une hauteur de 800 ft
brume
A partir de 11 à 1800 UTC
Vent 5 kt de est
Visibilité: 10 km
Ciel couvert à une hauteur de 1500 ft

TAF: KALW 110534Z 1106/1206 VRB04KT P6SM OVC015 FM111400 00000KT 2SM BR OVC008 FM111800 10005KT P6SM OVC015

Observations et prévisions météorologiques de plus de 4000 aéroports (messages METAR et TAF).

Les stations disponibles sont représentées par des disques jaunes et rouges sur la carte.

Passer la souris dessus pour voir le nom de la station.

Cliquer dessus pour voir les observations et prévisions météorologiques.

Pour changer de carte: cliquez sur les boutons verts avec une croix noire pour zoomer, sur le bouton vert avec un tiret pour effectuer un zoom arrière, ou sur les flèches vertes pour les cartes adjacentes.


METAR-TAF: